Terminal Aerodrome Forecast
Issued by NWS Jackson, KY

Home | Current Version | Previous Version | Text Only | Print | Product List | Glossary On
Versions: 1 2 3 4 5 6 7 8 9 10 11 12 13 14 15 16 17 18 19 20 21 22
000
FTUS43 KJKL 151100
TAFJKL
TAF
KJKL 151135Z 1512/1612 VRB03KT P6SM OVC011
     FM151800 16004KT P6SM SCT100 BKN250
     FM160300 17004KT 6SM -RA OVC050
     FM160800 21005KT 6SM -RA BR OVC025=

USA.gov is the U.S. government's official web portal to all federal, state and local government web resources and services.